Flight Track Log - Related Links

Times and Time Zones

All times are in EST time to prevent confusion due to time zone crossing. See the N654TR flight status page for this flight to view local times or setup timezone preferences in your user account.

Time Position Orientation Groundspeed Altitude Reporting Facility
EST Latitude Longitude Course Direction KTS MPH feet Rate Location/Type
Thu 01:29:00 PM 34.9108 -82.1506 69° East  Level FlightAware Approximate
Thu 01:30:00 PM 34.9212 -82.1173 69° East  Level FlightAware Approximate
Thu 01:31:00 PM 34.9316 -82.0841 69° East  Level FlightAware Approximate
Thu 01:32:00 PM 34.9421 -82.0508 69° East  Level FlightAware Approximate
Thu 01:33:00 PM 34.9525 -82.0175 69° East  Level FlightAware Approximate
Thu 01:34:00 PM 34.9629 -81.9842 69° East  Level FlightAware Approximate
Thu 01:34:15 PM 34.8867 -81.9397 68° East 156 180 5,000  Level Atlanta Center
Thu 01:35:00 PM 34.9733 -81.9509 69° East  Level FlightAware Approximate
Thu 01:35:22 PM 34.9067 -81.8883 65° Northeast 153 176 5,000  Level Atlanta Center
Thu 01:36:00 PM 34.9837 -81.9176 69° East  Level FlightAware Approximate
Thu 01:36:29 PM 34.9286 -81.8347 63° Northeast 153 176 5,000  Level Atlanta Center
Thu 01:37:00 PM 34.9940 -81.8843 69° East  Level FlightAware Approximate
Thu 01:37:30 PM 34.9467 -81.7911 63° Northeast 154 177 5,000  Level Atlanta Center
Thu 01:38:00 PM 35.0044 -81.8510 69° East  Level FlightAware Approximate
Thu 01:38:25 PM 34.9667 -81.7450 62° Northeast 159 183 5,000  Level Atlanta Center
Thu 01:39:00 PM 35.0157 -81.8180 68° East  Level Estimated
Thu 01:39:38 PM 34.9925 -81.6833 63° Northeast 162 186 5,000  Level Atlanta Center
Thu 01:40:27 PM 35.0064 -81.6425 67° East 164 189 5,000  Level Atlanta Center
Thu 01:41:28 PM 35.0306 -81.5936 59° Northeast 165 190 5,000  Level Atlanta Center
Thu 01:42:29 PM 35.0483 -81.5447 66° East 165 190 5,000  Level Atlanta Center
Thu 01:43:30 PM 35.0700 -81.4908 64° Northeast 165 190 5,000  Level Atlanta Center
Thu 01:44:25 PM 35.0881 -81.4472 63° Northeast 165 190 5,000  Level Atlanta Center
Thu 01:45:32 PM 35.1117 -81.3881 64° Northeast 163 188 5,000  Level Atlanta Center
Thu 01:46:33 PM 35.1314 -81.3392 64° Northeast 160 184 5,000  Level Atlanta Center
Thu 01:47:34 PM 35.1514 -81.2928 62° Northeast 160 184 5,000  Level Atlanta Center
Thu 01:48:41 PM 35.1750 -81.2361 63° Northeast 161 185 5,000  Level Atlanta Center
Thu 01:49:36 PM 35.1889 -81.1950 68° East 162 186 5,000  Level Atlanta Center
Thu 01:50:43 PM 35.1956 -81.1311 83° East 162 186 5,000  Level Atlanta Center
Thu 01:51:37 PM 35.2028 -81.0803 80° East 161 185 5,000  Level Atlanta Center
Thu 01:52:38 PM 35.2097 -81.0264 81° East 159 183 5,000  Level Atlanta Center
Thu 01:53:45 PM 35.2147 -80.9703 84° East 156 180 5,000  Level Atlanta Center
Thu 01:54:46 PM 35.2300 -80.9214 69° East 170 196 5,000 -90 Level Atlanta Center
Thu 01:55:59 PM 35.2622 -80.8669 54° Northeast 159 183 4,800 -375 Descending Atlanta Center
Thu 01:56:54 PM 35.2903 -80.8250 51° Northeast 174 200 4,200 -828 Descending Atlanta Center
Thu 01:57:55 PM 35.3244 -80.7806 47° Northeast 184 212 3,200 -885 Descending Atlanta Center
Thu 01:58:56 PM 35.3700 -80.7608 19° North 174 200 2,400 -639 Descending Atlanta Center
Thu 01:59:57 PM 35.4133 -80.7464 15° North 151 174 1,900 -522 Descending Atlanta Center
Thu 02:00:51 PM 35.4125 -80.7183 92° East 74 85 1,400 -365 Descending Atlanta Center
Thu 02:01:52 PM 35.4078 -80.6983 106° East 74 85 1,200 -197 Descending Atlanta Center

Login

Don't have an account? Register now (free) for customized features, flight alerts, and more!